< < Back
Terminal Aerodrome Forecast


Current Version              Previous Versions:   1  2  3  4  5  6  7  8  9  

Terminal Aerodrome Forecast

659
FTUS42 KILM 292246 AAB
TAFFLO
TAF AMD
KFLO 292246Z 2923/3018 25010KT P6SM VCTS SCT030CB BKN060
      TEMPO 2923/3001 VRB15G25KT 3SM TSRA BKN025CB
     FM300200 24003KT P6SM BKN150
     FM301300 24007KT 6SM HZ BKN250=



Latest METAR

967
SAUS70 KWBC 300200 RRA
MTRFLO
METAR KFLO 300153Z AUTO 24006KT 9SM FEW055 BKN085 OVC110 26/24 A2998 RMK
AO2 LTG DSNT SE AND S RAB03E23 SLP147 P0006 T02610244


USA.gov is the U.S. government's official web portal to all federal, state and local government web resources and services.